createdAt,value
2019-05-09T00:00:05.749Z,11.38
2019-05-09T00:05:10.682Z,10.65
2019-05-09T00:10:14.698Z,11.97
2019-05-09T00:15:18.387Z,12.50
2019-05-09T00:20:43.655Z,10.70
2019-05-09T00:25:48.051Z,12.35
2019-05-09T00:31:03.456Z,10.48
2019-05-09T00:36:07.518Z,9.93
2019-05-09T00:41:10.814Z,12.68
2019-05-09T00:46:23.624Z,13.78
2019-05-09T00:51:27.883Z,11.95
2019-05-09T00:56:33.129Z,11.88
2019-05-09T01:01:38.788Z,10.58
2019-05-09T01:06:43.399Z,11.08
2019-05-09T01:11:48.509Z,10.63
2019-05-09T01:16:53.458Z,12.70
2019-05-09T01:21:57.313Z,13.08
2019-05-09T01:27:00.873Z,14.47
2019-05-09T01:32:11.154Z,12.43
2019-05-09T01:37:14.954Z,12.15
2019-05-09T01:42:18.451Z,16.85
2019-05-09T01:47:23.545Z,18.52
2019-05-09T01:52:27.274Z,14.87
2019-05-09T01:57:30.687Z,12.13
2019-05-09T02:02:34.530Z,10.65
2019-05-09T02:07:39.152Z,11.40
2019-05-09T02:12:43.102Z,11.85
2019-05-09T02:18:05.220Z,10.43
2019-05-09T02:23:09.278Z,12.35
2019-05-09T02:28:14.154Z,15.15
2019-05-09T02:33:18.089Z,16.93
2019-05-09T02:38:21.539Z,11.30
2019-05-09T02:43:24.954Z,11.63
2019-05-09T02:48:29.345Z,9.23
2019-05-09T02:53:33.082Z,12.30
2019-05-09T02:58:48.532Z,11.43
2019-05-09T03:03:51.556Z,12.65
2019-05-09T03:08:54.946Z,10.35
2019-05-09T03:13:58.813Z,12.73
2019-05-09T03:19:03.451Z,9.98
2019-05-09T03:24:09.777Z,16.62
2019-05-09T03:29:30.709Z,13.05
2019-05-09T03:34:34.702Z,11.22
2019-05-09T03:39:38.777Z,11.20
2019-05-09T03:44:43.792Z,15.58
2019-05-09T03:50:08.202Z,13.45
2019-05-09T03:55:17.978Z,12.25
2019-05-09T04:00:22.426Z,11.90
2019-05-09T04:05:27.314Z,16.10
2019-05-09T04:10:30.793Z,9.95
2019-05-09T04:15:35.177Z,16.07
2019-05-09T04:20:38.969Z,12.58
2019-05-09T04:25:54.368Z,10.58
2019-05-09T04:30:59.193Z,12.40
2019-05-09T04:36:02.601Z,14.18
2019-05-09T04:41:07.431Z,15.65
2019-05-09T04:46:12.888Z,14.63
2019-05-09T04:51:18.024Z,12.55
2019-05-09T04:56:27.885Z,11.65
2019-05-09T05:01:58.088Z,11.88
2019-05-09T05:07:01.770Z,13.18
2019-05-09T05:12:05.345Z,13.15
2019-05-09T05:17:11.417Z,11.65
2019-05-09T05:22:21.475Z,15.40
2019-05-09T05:27:24.914Z,11.45
2019-05-09T05:32:38.569Z,15.38
2019-05-09T05:37:42.141Z,14.87
2019-05-09T05:42:47.791Z,11.75
2019-05-09T05:47:59.517Z,13.15
2019-05-09T05:53:03.421Z,12.95
2019-05-09T05:58:08.569Z,15.00
2019-05-09T06:03:12.241Z,12.43
2019-05-09T06:08:17.458Z,17.90
2019-05-09T06:13:21.318Z,13.28
2019-05-09T06:18:24.886Z,10.88
2019-05-09T06:23:28.375Z,13.43
2019-05-09T06:28:31.875Z,10.20
2019-05-09T06:33:35.641Z,13.40
2019-05-09T06:38:40.135Z,12.55
2019-05-09T06:43:45.469Z,20.25
2019-05-09T06:48:49.297Z,12.98
2019-05-09T06:53:53.795Z,15.90
2019-05-09T06:58:58.391Z,16.37
2019-05-09T07:04:09.186Z,16.67
2019-05-09T07:09:17.653Z,24.70
2019-05-09T07:14:31.902Z,22.13
2019-05-09T07:19:33.333Z,14.93
2019-05-09T07:25:06.886Z,17.15
2019-05-09T07:30:17.953Z,13.43
2019-05-09T07:35:21.679Z,12.18
2019-05-09T07:40:30.128Z,16.82
2019-05-09T07:45:31.644Z,17.50
2019-05-09T07:50:38.664Z,17.05
2019-05-09T07:55:41.442Z,18.37
2019-05-09T08:00:45.283Z,13.40
2019-05-09T08:05:48.632Z,19.25
2019-05-09T08:10:52.866Z,13.28
2019-05-09T08:15:58.368Z,16.90
2019-05-09T08:21:01.912Z,16.48
2019-05-09T08:26:05.609Z,20.25
2019-05-09T08:31:09.451Z,15.50
2019-05-09T08:36:14.332Z,16.37
2019-05-09T08:41:18.595Z,13.45
2019-05-09T08:46:23.641Z,15.70
2019-05-09T08:51:56.068Z,16.27
2019-05-09T08:56:51.049Z,16.42
2019-05-09T09:02:12.251Z,15.05
2019-05-09T09:07:00.864Z,17.73
2019-05-09T09:12:21.994Z,14.93
2019-05-09T09:17:10.224Z,13.73
2019-05-09T09:22:13.551Z,19.00
2019-05-09T09:27:18.334Z,16.70
2019-05-09T09:32:21.773Z,16.93
2019-05-09T09:37:29.597Z,21.05
2019-05-09T09:42:32.106Z,15.45
2019-05-09T09:47:39.567Z,18.70
2019-05-09T09:52:41.649Z,16.75
2019-05-09T09:57:45.337Z,15.50
2019-05-09T10:02:48.873Z,17.00
2019-05-09T10:07:52.263Z,15.65
2019-05-09T10:13:03.827Z,15.23
2019-05-09T10:18:18.286Z,15.78
2019-05-09T10:23:23.707Z,16.05
2019-05-09T10:28:29.991Z,14.75
2019-05-09T10:33:33.483Z,14.87
2019-05-09T10:38:38.613Z,11.93
2019-05-09T10:44:02.247Z,18.42
2019-05-09T10:49:08.277Z,12.93
2019-05-09T10:54:12.829Z,9.75
2019-05-09T10:59:18.297Z,12.82
2019-05-09T11:04:21.553Z,11.83
2019-05-09T11:09:24.866Z,11.57
2019-05-09T11:14:36.562Z,10.95
2019-05-09T11:19:33.810Z,15.93
2019-05-09T11:24:45.711Z,14.70
2019-05-09T11:29:42.487Z,13.53
2019-05-09T11:34:48.428Z,14.60
2019-05-09T11:39:51.485Z,12.00
2019-05-09T11:44:54.784Z,14.23
2019-05-09T11:49:59.690Z,14.07
2019-05-09T11:55:03.323Z,11.18
2019-05-09T12:00:09.943Z,11.03
2019-05-09T12:05:13.740Z,11.83
2019-05-09T12:10:18.701Z,9.45
2019-05-09T12:15:23.731Z,9.58
2019-05-09T12:20:28.377Z,10.38
2019-05-09T12:25:32.136Z,14.43
2019-05-09T12:30:37.811Z,10.50
2019-05-09T12:35:40.879Z,7.37
2019-05-09T12:40:44.175Z,8.03
2019-05-09T12:45:47.975Z,9.73
2019-05-09T12:50:51.482Z,7.65
2019-05-09T12:56:00.571Z,8.70
2019-05-09T13:01:04.236Z,11.60
2019-05-09T13:06:08.379Z,8.50
2019-05-09T13:14:24.206Z,9.90
2019-05-09T13:19:33.812Z,9.55
2019-05-09T13:24:38.069Z,11.08
2019-05-09T13:29:42.063Z,13.48
2019-05-09T13:34:48.427Z,11.15
2019-05-09T13:39:51.806Z,12.85
2019-05-09T13:44:55.524Z,13.08
2019-05-09T13:49:59.228Z,13.95
2019-05-09T13:55:04.230Z,14.87
2019-05-09T14:00:08.991Z,13.20
2019-05-09T14:05:12.630Z,10.80
2019-05-09T14:10:17.813Z,11.85
2019-05-09T14:15:21.562Z,14.43
2019-05-09T14:20:27.178Z,14.50
2019-05-09T14:25:30.628Z,14.18
2019-05-09T14:30:33.951Z,13.13
2019-05-09T14:35:38.714Z,18.55
2019-05-09T14:40:42.365Z,15.60
2019-05-09T14:45:48.283Z,17.48
2019-05-09T14:50:51.313Z,16.07
2019-05-09T14:55:55.270Z,13.90
2019-05-09T15:01:00.919Z,14.40
2019-05-09T15:06:04.785Z,13.80
2019-05-09T15:11:10.010Z,23.65
2019-05-09T15:16:13.546Z,18.77
2019-05-09T15:21:19.208Z,63.75
2019-05-09T15:26:23.097Z,13.37
2019-05-09T15:31:28.646Z,13.13
2019-05-09T15:36:31.609Z,12.98
2019-05-09T15:41:35.185Z,14.03
2019-05-09T15:46:48.607Z,13.43
2019-05-09T15:51:52.056Z,13.25
2019-05-09T15:56:57.879Z,11.90
2019-05-09T16:02:00.793Z,13.38
2019-05-09T16:07:04.157Z,12.73
2019-05-09T16:12:07.856Z,13.20
2019-05-09T16:17:11.317Z,15.72
2019-05-09T16:22:14.879Z,15.48
2019-05-09T16:27:19.720Z,19.25
2019-05-09T16:32:23.726Z,18.95
2019-05-09T16:37:28.387Z,16.65
2019-05-09T16:42:31.921Z,22.05
2019-05-09T16:47:35.197Z,19.92
2019-05-09T16:52:43.524Z,19.48
2019-05-09T16:57:46.118Z,19.23
2019-05-09T17:02:49.538Z,18.23
2019-05-09T17:07:53.014Z,14.93
2019-05-09T17:12:58.257Z,17.17
2019-05-09T17:18:01.945Z,16.90
2019-05-09T17:23:15.016Z,16.85
2019-05-09T17:28:17.941Z,20.05
2019-05-09T17:33:21.440Z,21.52
2019-05-09T17:38:27.652Z,20.45
2019-05-09T17:43:30.854Z,19.07
2019-05-09T17:48:34.125Z,24.52
2019-05-09T17:53:38.538Z,19.77
2019-05-09T17:58:42.086Z,23.42
2019-05-09T18:03:47.948Z,20.20
2019-05-09T18:08:50.865Z,25.52
2019-05-09T18:13:54.522Z,25.25
2019-05-09T18:18:59.964Z,29.82
2019-05-09T18:24:03.659Z,24.45
2019-05-09T18:29:07.202Z,28.07
2019-05-09T18:34:10.707Z,28.02
2019-05-09T18:39:14.169Z,32.15
2019-05-09T18:44:18.581Z,30.82
2019-05-09T18:49:22.945Z,28.27
2019-05-09T18:54:26.499Z,33.80
2019-05-09T18:59:31.029Z,38.00
2019-05-09T19:04:34.445Z,29.90
2019-05-09T19:09:37.858Z,37.08
2019-05-09T19:14:43.780Z,34.08
2019-05-09T19:19:58.072Z,33.83
2019-05-09T19:25:01.553Z,37.67
2019-05-09T19:30:05.419Z,35.88
2019-05-09T19:35:08.760Z,37.33
2019-05-09T19:40:12.806Z,41.80
2019-05-09T19:45:16.407Z,45.00
2019-05-09T19:50:19.827Z,36.17
2019-05-09T19:55:23.532Z,38.75
2019-05-09T20:00:27.096Z,35.98
2019-05-09T20:05:30.840Z,37.63
2019-05-09T20:11:05.460Z,37.90
2019-05-09T20:16:09.942Z,39.08
2019-05-09T20:21:13.426Z,38.75
2019-05-09T20:26:18.279Z,37.10
2019-05-09T20:31:21.969Z,38.70
2019-05-09T20:36:26.127Z,37.83
2019-05-09T20:41:30.327Z,34.38
2019-05-09T20:46:35.117Z,33.95
2019-05-09T20:51:38.843Z,33.02
2019-05-09T20:56:42.980Z,37.45
2019-05-09T21:01:47.124Z,33.28
2019-05-09T21:06:51.012Z,31.93
2019-05-09T21:11:54.660Z,34.35
2019-05-09T21:16:58.246Z,39.10
2019-05-09T21:22:02.033Z,37.60
2019-05-09T21:27:06.483Z,41.05
2019-05-09T21:32:10.742Z,41.37
2019-05-09T21:37:14.198Z,44.50
2019-05-09T21:42:18.247Z,40.48
2019-05-09T21:47:22.274Z,41.00
2019-05-09T21:52:26.042Z,46.30
2019-05-09T21:57:32.390Z,50.00
2019-05-09T22:02:36.125Z,50.38
2019-05-09T22:07:40.116Z,54.83
2019-05-09T22:12:43.780Z,52.73
2019-05-09T22:17:47.295Z,55.75
2019-05-09T22:22:50.798Z,55.63
2019-05-09T22:27:54.223Z,58.20
2019-05-09T22:32:57.596Z,59.03
2019-05-09T22:38:00.892Z,67.70
2019-05-09T22:43:04.201Z,63.02
2019-05-09T22:48:07.580Z,63.15
2019-05-09T22:53:10.913Z,69.60
2019-05-09T22:58:14.760Z,72.75
2019-05-09T23:03:18.947Z,72.78
2019-05-09T23:08:22.301Z,68.70
2019-05-09T23:13:25.737Z,70.32
2019-05-09T23:18:29.096Z,80.62
2019-05-09T23:23:39.857Z,79.12
2019-05-09T23:28:44.399Z,79.22
2019-05-09T23:33:47.846Z,76.55
2019-05-09T23:39:11.286Z,76.95
2019-05-09T23:44:15.043Z,85.20
2019-05-09T23:49:18.537Z,83.05
2019-05-09T23:54:48.307Z,88.45
